createdAt,value
2022-11-19T00:03:22.980Z,81.27
2022-11-19T00:08:26.160Z,81.01
2022-11-19T00:13:29.263Z,80.96
2022-11-19T00:18:32.420Z,81.10
2022-11-19T00:23:37.232Z,81.59
2022-11-19T00:28:42.030Z,81.85
2022-11-19T00:33:46.655Z,81.77
2022-11-19T00:38:49.840Z,81.80
2022-11-19T00:43:53.022Z,81.83
2022-11-19T00:48:59.154Z,81.99
2022-11-19T00:54:02.309Z,82.06
2022-11-19T00:59:06.032Z,82.14
2022-11-19T01:04:09.192Z,82.04
2022-11-19T01:09:12.341Z,81.96
2022-11-19T01:14:15.486Z,81.89
2022-11-19T01:19:18.960Z,81.76
2022-11-19T01:24:22.409Z,81.71
2022-11-19T01:29:25.590Z,81.54
2022-11-19T01:34:28.810Z,81.30
2022-11-19T01:39:31.949Z,81.32
2022-11-19T01:45:03.980Z,81.36
2022-11-19T01:50:07.724Z,81.46
2022-11-19T01:55:12.146Z,81.64
2022-11-19T02:00:16.189Z,81.83
2022-11-19T02:05:19.791Z,81.96
2022-11-19T02:10:50.898Z,82.21
2022-11-19T02:16:05.631Z,82.45
2022-11-19T02:21:11.606Z,82.67
2022-11-19T02:26:26.536Z,82.93
2022-11-19T02:31:40.753Z,82.96
2022-11-19T02:37:36.547Z,82.88
2022-11-19T02:43:15.858Z,82.31
2022-11-19T02:48:38.861Z,82.26
2022-11-19T02:53:41.926Z,82.21
2022-11-19T02:59:12.590Z,82.71
2022-11-19T03:04:32.962Z,82.79
2022-11-19T03:09:45.115Z,82.63
2022-11-19T03:15:37.779Z,82.42
2022-11-19T03:20:59.622Z,82.42
2022-11-19T03:26:27.408Z,82.52
2022-11-19T03:31:34.860Z,82.39
2022-11-19T03:36:41.806Z,82.29
2022-11-19T03:41:49.892Z,82.02
2022-11-19T03:47:07.789Z,81.74
2022-11-19T03:52:19.753Z,81.53
2022-11-19T03:57:26.337Z,81.50
2022-11-19T04:02:29.614Z,81.47
2022-11-19T04:07:32.822Z,81.56
2022-11-19T04:12:37.969Z,81.33
2022-11-19T04:17:41.494Z,81.26
2022-11-19T04:22:45.102Z,81.37
2022-11-19T04:27:48.414Z,81.45
2022-11-19T04:32:51.515Z,81.61
2022-11-19T04:37:54.719Z,81.79
2022-11-19T04:42:57.754Z,81.79
2022-11-19T04:48:00.933Z,81.38
2022-11-19T04:53:04.041Z,81.35
2022-11-19T04:58:07.143Z,81.28
2022-11-19T05:03:10.250Z,81.17
2022-11-19T05:08:13.387Z,81.22
2022-11-19T05:13:16.771Z,81.19
2022-11-19T05:18:19.883Z,81.36
2022-11-19T05:23:24.362Z,81.52
2022-11-19T05:28:38.108Z,81.82
2022-11-19T05:33:42.306Z,82.02
2022-11-19T05:38:45.428Z,82.17
2022-11-19T05:43:48.619Z,81.89
2022-11-19T05:48:51.727Z,81.71
2022-11-19T05:53:54.903Z,81.56
2022-11-19T05:58:58.047Z,81.64
2022-11-19T06:04:01.267Z,81.68
2022-11-19T06:09:04.864Z,81.71
2022-11-19T06:14:08.306Z,81.68
2022-11-19T06:19:11.997Z,81.81
2022-11-19T06:24:16.140Z,81.88
2022-11-19T06:29:20.393Z,81.83
2022-11-19T06:34:23.670Z,81.96
2022-11-19T06:39:26.904Z,82.00
2022-11-19T06:44:29.986Z,82.07
2022-11-19T06:49:33.108Z,82.49
2022-11-19T06:54:40.220Z,81.96
2022-11-19T06:59:46.083Z,81.60
2022-11-19T07:04:49.479Z,81.30
2022-11-19T07:09:52.793Z,81.20
2022-11-19T07:14:58.564Z,81.28
2022-11-19T07:20:07.711Z,81.10
2022-11-19T07:25:14.921Z,81.25
2022-11-19T07:30:18.427Z,81.05
2022-11-19T07:35:21.529Z,80.88
2022-11-19T07:40:24.748Z,80.92
2022-11-19T07:45:27.845Z,81.06
2022-11-19T07:50:31.155Z,81.03
2022-11-19T07:55:34.583Z,80.71
2022-11-19T08:00:37.681Z,80.79
2022-11-19T08:05:41.118Z,80.87
2022-11-19T08:10:44.192Z,80.68
2022-11-19T08:15:47.417Z,80.31
2022-11-19T08:20:50.509Z,80.29
2022-11-19T08:25:53.720Z,80.51
2022-11-19T08:30:58.038Z,80.68
2022-11-19T08:36:02.302Z,80.85
2022-11-19T08:41:24.675Z,81.11
2022-11-19T08:46:28.666Z,81.22
2022-11-19T08:51:32.305Z,81.13
2022-11-19T08:56:35.498Z,81.21
2022-11-19T09:01:39.663Z,80.87
2022-11-19T09:06:43.049Z,80.31
2022-11-19T09:11:46.279Z,79.93
2022-11-19T09:16:49.564Z,79.75
2022-11-19T09:21:52.897Z,79.50
2022-11-19T09:27:01.033Z,78.81
2022-11-19T09:32:05.539Z,78.64
2022-11-19T09:37:09.682Z,78.61
2022-11-19T09:42:17.276Z,78.33
2022-11-19T09:47:23.456Z,77.91
2022-11-19T09:52:33.998Z,77.39
2022-11-19T09:57:46.051Z,76.77
2022-11-19T10:02:50.556Z,76.46
2022-11-19T10:08:16.030Z,76.21
2022-11-19T10:13:31.421Z,76.14
2022-11-19T10:18:56.774Z,76.51
2022-11-19T10:24:18.333Z,76.03
2022-11-19T10:29:27.368Z,76.07
2022-11-19T10:34:38.027Z,76.35
2022-11-19T10:39:46.692Z,76.54
2022-11-19T10:45:17.664Z,76.50
2022-11-19T10:50:26.152Z,76.62
2022-11-19T10:55:35.248Z,76.26
2022-11-19T11:00:42.112Z,76.32
2022-11-19T11:05:59.599Z,75.98
2022-11-19T11:11:02.948Z,75.64
2022-11-19T11:16:12.408Z,75.85
2022-11-19T11:21:43.272Z,75.73
2022-11-19T11:26:46.558Z,76.08
2022-11-19T11:31:51.399Z,76.13
2022-11-19T11:36:55.950Z,75.95
2022-11-19T11:42:09.955Z,76.53
2022-11-19T11:47:20.055Z,76.46
2022-11-19T11:52:41.306Z,76.57
2022-11-19T11:57:57.609Z,76.29
2022-11-19T12:03:19.380Z,75.93
2022-11-19T12:08:27.087Z,76.15
2022-11-19T12:13:36.447Z,76.03
2022-11-19T12:19:05.254Z,75.63
2022-11-19T12:24:23.806Z,75.58
2022-11-19T12:29:55.410Z,75.48
2022-11-19T12:35:16.040Z,75.96
2022-11-19T12:40:44.835Z,75.39
2022-11-19T12:45:51.187Z,75.49
2022-11-19T12:51:28.253Z,76.10
2022-11-19T12:56:54.353Z,76.38
2022-11-19T13:02:03.217Z,76.52
2022-11-19T13:07:25.485Z,76.57
2022-11-19T13:12:42.978Z,76.47
2022-11-19T13:17:52.864Z,76.40
2022-11-19T13:23:03.130Z,76.52
2022-11-19T13:28:22.498Z,76.75
2022-11-19T13:33:39.652Z,77.00
2022-11-19T13:39:13.807Z,76.90
2022-11-19T13:44:37.353Z,77.09
2022-11-19T13:50:05.349Z,77.08
2022-11-19T13:55:33.966Z,77.28
2022-11-19T14:00:38.601Z,77.11
2022-11-19T14:06:06.390Z,77.43
2022-11-19T14:11:28.200Z,77.07
2022-11-19T14:17:11.115Z,76.74
2022-11-19T14:22:53.639Z,76.33
2022-11-19T14:27:56.801Z,76.00
2022-11-19T14:33:00.064Z,75.76
2022-11-19T14:38:34.276Z,75.82
2022-11-19T14:44:11.452Z,75.96
2022-11-19T14:49:38.220Z,76.37
2022-11-19T14:54:45.559Z,76.53
2022-11-19T15:00:01.593Z,76.89
2022-11-19T15:05:21.616Z,76.94
2022-11-19T15:10:31.035Z,77.13
2022-11-19T15:15:44.131Z,77.15
2022-11-19T15:21:34.397Z,77.42
2022-11-19T15:26:55.792Z,77.43
2022-11-19T15:32:23.451Z,77.38
2022-11-19T15:37:55.125Z,77.00
2022-11-19T15:43:04.482Z,77.06
2022-11-19T15:48:19.464Z,77.03
2022-11-19T15:53:25.029Z,77.19
2022-11-19T15:58:42.470Z,77.39
2022-11-19T16:03:46.512Z,77.26
2022-11-19T16:09:00.540Z,77.01
2022-11-19T16:14:38.934Z,77.15
2022-11-19T16:19:42.101Z,77.17
2022-11-19T16:25:04.161Z,76.93
2022-11-19T16:30:21.589Z,77.04
2022-11-19T16:35:31.793Z,77.22
2022-11-19T16:40:54.020Z,77.54
2022-11-19T16:45:58.809Z,78.15
2022-11-19T16:51:54.122Z,78.86
2022-11-19T16:56:57.562Z,79.76
2022-11-19T17:02:00.855Z,80.14
2022-11-19T17:07:04.106Z,80.35
2022-11-19T17:12:33.062Z,80.60
2022-11-19T17:17:41.648Z,80.81
2022-11-19T17:22:45.209Z,81.02
2022-11-19T17:27:57.770Z,81.18
2022-11-19T17:33:06.228Z,81.39
2022-11-19T17:38:27.184Z,81.47
2022-11-19T17:43:55.633Z,81.47
2022-11-19T17:48:58.751Z,81.56
2022-11-19T17:54:02.420Z,81.53
2022-11-19T17:59:05.509Z,81.71
2022-11-19T18:04:12.772Z,81.86
2022-11-19T18:09:16.455Z,82.10
2022-11-19T18:14:19.638Z,82.06
2022-11-19T18:19:31.408Z,81.99
2022-11-19T18:24:34.583Z,81.90
2022-11-19T18:29:38.482Z,82.04
2022-11-19T18:34:44.204Z,82.07
2022-11-19T18:39:48.685Z,82.23
2022-11-19T18:44:52.823Z,82.39
2022-11-19T18:49:58.703Z,82.40
2022-11-19T18:55:03.032Z,82.39
2022-11-19T19:00:07.956Z,82.49
2022-11-19T19:05:11.611Z,82.65
2022-11-19T19:10:15.332Z,82.77
2022-11-19T19:15:18.828Z,82.83
2022-11-19T19:20:22.135Z,82.82
2022-11-19T19:25:25.552Z,82.74
2022-11-19T19:30:28.694Z,82.68
2022-11-19T19:35:31.975Z,82.64
2022-11-19T19:40:35.186Z,82.64
2022-11-19T19:45:38.696Z,82.71
2022-11-19T19:50:51.182Z,82.65
2022-11-19T19:56:13.320Z,82.57
2022-11-19T20:01:27.072Z,82.19
2022-11-19T20:06:33.301Z,81.94
2022-11-19T20:11:37.546Z,81.93
2022-11-19T20:16:41.801Z,81.99
2022-11-19T20:21:47.334Z,81.79
2022-11-19T20:26:50.760Z,81.58
2022-11-19T20:31:54.002Z,81.58
2022-11-19T20:36:58.089Z,81.64
2022-11-19T20:42:20.032Z,81.38
2022-11-19T20:47:23.449Z,81.05
2022-11-19T20:52:26.766Z,80.90
2022-11-19T20:57:29.976Z,81.00
2022-11-19T21:02:33.466Z,80.99
2022-11-19T21:07:37.064Z,81.20
2022-11-19T21:13:00.382Z,81.32
2022-11-19T21:18:04.102Z,81.36
2022-11-19T21:23:07.414Z,81.28
2022-11-19T21:28:10.633Z,81.29
2022-11-19T21:33:13.842Z,81.07
2022-11-19T21:38:17.046Z,81.32
2022-11-19T21:43:22.057Z,81.44
2022-11-19T21:48:26.542Z,81.49
2022-11-19T21:53:29.635Z,81.60
2022-11-19T21:58:32.842Z,81.86
2022-11-19T22:03:36.378Z,82.06
2022-11-19T22:08:42.162Z,82.11
2022-11-19T22:13:45.786Z,82.00
2022-11-19T22:18:49.363Z,82.06
2022-11-19T22:23:53.185Z,82.14
2022-11-19T22:28:56.713Z,82.18
2022-11-19T22:34:00.009Z,82.19
2022-11-19T22:39:04.250Z,82.02
2022-11-19T22:44:07.466Z,82.02
2022-11-19T22:49:10.863Z,82.06
2022-11-19T22:54:15.572Z,82.11
2022-11-19T22:59:18.941Z,82.07
2022-11-19T23:04:22.643Z,82.04
2022-11-19T23:09:25.986Z,81.94
2022-11-19T23:14:30.297Z,82.08
2022-11-19T23:19:33.510Z,82.17
2022-11-19T23:24:36.610Z,82.17
2022-11-19T23:29:39.708Z,82.00
2022-11-19T23:34:42.814Z,81.78
2022-11-19T23:39:46.133Z,81.73
2022-11-19T23:44:49.369Z,81.64
2022-11-19T23:49:52.547Z,81.51
2022-11-19T23:54:58.411Z,81.37
